Stone Cabin, Nevada Weather observations

Data are for observation ending at time listed.
 Day   Time    Ave.   Ave.  Ave.  Vector   Max.   Stn.    Total    Solar   Ave.  
  of    of     Air    Rel.  Wind   Wind    Wind   Baro.  Precip.   Rad.    Soil  
Year   Day     Temp.  Hum.  Speed  Dir.    Gust   Pres.                    Temp. 
2016   (PST)    F      %     mph   deg.    mph     mb.     in.     W/m2     F   
------------------------------------------------------------------------------
 241   10:00   78.3    21    0.6    75      4.7    824     0.00     802    67.0
 241   11:00   83.1    16    0.8   101      5.1    825     0.00     916    70.2
 241   12:00   84.4    11    1.4   101      5.4    824     0.00     968    73.6
 241   13:00   85.9    11    1.5    33      9.1    824     0.00     946    75.9
 241   14:00   87.1    11    1.4    99      6.1    824     0.00     859    76.2
 241   15:00   87.4    11    2.7   151     12.5    822     0.00     714    76.9
 241   16:00   87.4    10    2.4   152     10.4    822     0.00     527    77.0
 241   17:00   86.8    10    2.7   185      8.4    822     0.00     317    76.4
 241   18:00   83.6    10    4.3   200     10.4    822     0.00     114    75.7
 241   19:00   77.1    12    1.4   184      8.1    822     0.00       6    74.7
 241   20:00   68.6    15    0.2   159      3.4    824     0.00       1    73.2
 241   21:00   66.0    17    0.1    62      2.1    823     0.00       0    71.6
 241   22:00   59.3    20    0.5   297      3.0    825     0.00       0    70.3
 241   23:00   57.9    21    0.7   315      4.6    822     0.00       0    69.2
 242    0:00   54.3    25    0.3   329      2.7    821     0.00       0    68.2
 242    1:00   49.5    28    0.9   307      3.5    825     0.00       0    67.3
 242    2:00   49.1    27    0.2   249      3.1    827     0.00       0    66.6
 242    3:00   49.0    28    0.6   273      3.3    828     0.00       0    65.8
 242    4:00   47.1    32    0.2   293      2.2    827     0.00       0    65.2
 242    5:00   45.4    36    0.4   299      4.3    826     0.00       0    64.6
 242    6:00   45.8    35    0.6   286      4.1    824     0.00      13    64.0
 242    7:00   51.7    32    0.1   306      3.0    823     0.00     138    63.5
 242    8:00   67.0    23    0.1   309      2.8    822     0.00     415    63.7
 242    9:00   79.1    16    0.0   114      1.4    825     0.00     621    65.0

Return to Stone Cabin, Nevada graphs page.


Western Regional Climate Center,wrcc@dri.edu